sensor_id;sensor_type;location;lat;lon;timestamp;temperature;humidity
3051;DHT22;1535;51.098;6.414;2023-04-03T00:00:11;0.50;99.90
3051;DHT22;1535;51.098;6.414;2023-04-03T00:02:38;0.50;99.90
3051;DHT22;1535;51.098;6.414;2023-04-03T00:05:08;0.80;99.90
3051;DHT22;1535;51.098;6.414;2023-04-03T00:07:35;0.90;99.90
3051;DHT22;1535;51.098;6.414;2023-04-03T00:10:05;0.90;99.90
3051;DHT22;1535;51.098;6.414;2023-04-03T00:12:32;0.80;99.90
3051;DHT22;1535;51.098;6.414;2023-04-03T00:14:58;0.70;99.90
3051;DHT22;1535;51.098;6.414;2023-04-03T00:17:25;0.50;99.90
3051;DHT22;1535;51.098;6.414;2023-04-03T00:19:52;0.40;99.90
3051;DHT22;1535;51.098;6.414;2023-04-03T00:22:19;0.40;99.90
3051;DHT22;1535;51.098;6.414;2023-04-03T00:24:46;0.40;99.90
3051;DHT22;1535;51.098;6.414;2023-04-03T00:27:14;0.40;99.90
3051;DHT22;1535;51.098;6.414;2023-04-03T00:29:41;0.40;99.90
3051;DHT22;1535;51.098;6.414;2023-04-03T00:32:08;0.30;99.90
3051;DHT22;1535;51.098;6.414;2023-04-03T00:34:35;0.30;99.90
3051;DHT22;1535;51.098;6.414;2023-04-03T00:37:02;0.10;99.90
3051;DHT22;1535;51.098;6.414;2023-04-03T00:39:29;0.20;99.90
3051;DHT22;1535;51.098;6.414;2023-04-03T00:41:55;0.30;99.90
3051;DHT22;1535;51.098;6.414;2023-04-03T00:47:24;0.20;99.90
3051;DHT22;1535;51.098;6.414;2023-04-03T00:49:51;0.10;99.90
3051;DHT22;1535;51.098;6.414;2023-04-03T00:52:21;0.10;99.90
3051;DHT22;1535;51.098;6.414;2023-04-03T00:54:50;0.00;99.90
3051;DHT22;1535;51.098;6.414;2023-04-03T00:57:18;0.00;99.90
3051;DHT22;1535;51.098;6.414;2023-04-03T00:59:49;0.00;99.90
3051;DHT22;1535;51.098;6.414;2023-04-03T01:02:17;0.00;99.90
3051;DHT22;1535;51.098;6.414;2023-04-03T01:04:46;0.00;99.90
3051;DHT22;1535;51.098;6.414;2023-04-03T01:07:16;0.00;99.90
3051;DHT22;1535;51.098;6.414;2023-04-03T01:09:45;0.20;99.90
3051;DHT22;1535;51.098;6.414;2023-04-03T01:12:14;0.20;99.90
3051;DHT22;1535;51.098;6.414;2023-04-03T01:14:43;0.10;99.90
3051;DHT22;1535;51.098;6.414;2023-04-03T01:17:27;0.10;99.90
3051;DHT22;1535;51.098;6.414;2023-04-03T01:20:24;0.00;99.90
3051;DHT22;1535;51.098;6.414;2023-04-03T01:23:06;0.00;99.90
3051;DHT22;1535;51.098;6.414;2023-04-03T01:25:40;0.00;99.90
3051;DHT22;1535;51.098;6.414;2023-04-03T01:28:10;0.00;99.90
3051;DHT22;1535;51.098;6.414;2023-04-03T01:30:43;0.00;99.90
3051;DHT22;1535;51.098;6.414;2023-04-03T01:33:13;-0.10;99.90
3051;DHT22;1535;51.098;6.414;2023-04-03T01:35:40;-0.10;99.90
3051;DHT22;1535;51.098;6.414;2023-04-03T01:38:07;-0.10;99.90
3051;DHT22;1535;51.098;6.414;2023-04-03T01:40:34;-0.20;99.90
3051;DHT22;1535;51.098;6.414;2023-04-03T01:43:01;-0.20;99.90
3051;DHT22;1535;51.098;6.414;2023-04-03T01:45:28;-0.30;99.90
3051;DHT22;1535;51.098;6.414;2023-04-03T01:47:55;-0.30;99.90
3051;DHT22;1535;51.098;6.414;2023-04-03T01:50:23;-0.30;99.90
3051;DHT22;1535;51.098;6.414;2023-04-03T01:52:50;-0.30;99.90
3051;DHT22;1535;51.098;6.414;2023-04-03T01:55:17;-0.20;99.90
3051;DHT22;1535;51.098;6.414;2023-04-03T01:57:44;-0.20;99.90
3051;DHT22;1535;51.098;6.414;2023-04-03T02:00:11;-0.20;99.90
3051;DHT22;1535;51.098;6.414;2023-04-03T02:02:38;-0.20;99.90
3051;DHT22;1535;51.098;6.414;2023-04-03T02:05:06;-0.30;99.90
3051;DHT22;1535;51.098;6.414;2023-04-03T02:07:34;-0.30;99.90
3051;DHT22;1535;51.098;6.414;2023-04-03T02:10:01;-0.30;99.90
3051;DHT22;1535;51.098;6.414;2023-04-03T02:12:28;-0.30;99.90
3051;DHT22;1535;51.098;6.414;2023-04-03T02:14:54;-0.40;99.90
3051;DHT22;1535;51.098;6.414;2023-04-03T02:17:21;-0.40;99.90
3051;DHT22;1535;51.098;6.414;2023-04-03T02:19:49;-0.30;99.90
3051;DHT22;1535;51.098;6.414;2023-04-03T02:22:15;-0.30;99.90
3051;DHT22;1535;51.098;6.414;2023-04-03T02:24:43;-0.20;99.90
3051;DHT22;1535;51.098;6.414;2023-04-03T02:27:10;-0.20;99.90
3051;DHT22;1535;51.098;6.414;2023-04-03T02:29:37;-0.20;99.90
3051;DHT22;1535;51.098;6.414;2023-04-03T02:32:05;-0.20;99.90
3051;DHT22;1535;51.098;6.414;2023-04-03T02:34:31;-0.20;99.90
3051;DHT22;1535;51.098;6.414;2023-04-03T02:36:58;-0.10;99.90
3051;DHT22;1535;51.098;6.414;2023-04-03T02:39:26;0.00;99.90
3051;DHT22;1535;51.098;6.414;2023-04-03T02:41:54;0.10;99.90
3051;DHT22;1535;51.098;6.414;2023-04-03T02:47:02;0.20;99.90
3051;DHT22;1535;51.098;6.414;2023-04-03T02:49:29;0.30;99.90
3051;DHT22;1535;51.098;6.414;2023-04-03T02:51:56;0.40;99.90
3051;DHT22;1535;51.098;6.414;2023-04-03T02:54:24;0.40;99.90
3051;DHT22;1535;51.098;6.414;2023-04-03T02:56:55;0.40;99.90
3051;DHT22;1535;51.098;6.414;2023-04-03T02:59:22;0.50;99.90
3051;DHT22;1535;51.098;6.414;2023-04-03T03:01:49;0.40;99.90
3051;DHT22;1535;51.098;6.414;2023-04-03T03:04:16;0.50;99.90
3051;DHT22;1535;51.098;6.414;2023-04-03T03:06:44;0.50;99.90
3051;DHT22;1535;51.098;6.414;2023-04-03T03:09:11;0.50;99.90
3051;DHT22;1535;51.098;6.414;2023-04-03T03:11:40;0.50;99.90
3051;DHT22;1535;51.098;6.414;2023-04-03T03:14:08;0.50;99.90
3051;DHT22;1535;51.098;6.414;2023-04-03T03:16:36;0.50;99.90
3051;DHT22;1535;51.098;6.414;2023-04-03T03:19:03;0.50;99.90
3051;DHT22;1535;51.098;6.414;2023-04-03T03:21:30;0.60;99.90
3051;DHT22;1535;51.098;6.414;2023-04-03T03:23:56;0.70;99.90
3051;DHT22;1535;51.098;6.414;2023-04-03T03:26:23;0.70;99.90
3051;DHT22;1535;51.098;6.414;2023-04-03T03:28:50;0.70;99.90
3051;DHT22;1535;51.098;6.414;2023-04-03T03:31:18;0.70;99.90
3051;DHT22;1535;51.098;6.414;2023-04-03T03:33:45;0.80;99.90
3051;DHT22;1535;51.098;6.414;2023-04-03T03:36:12;0.80;99.90
3051;DHT22;1535;51.098;6.414;2023-04-03T03:38:39;0.90;99.90
3051;DHT22;1535;51.098;6.414;2023-04-03T03:41:06;0.90;99.90
3051;DHT22;1535;51.098;6.414;2023-04-03T03:43:34;0.90;99.90
3051;DHT22;1535;51.098;6.414;2023-04-03T03:46:00;0.90;99.90
3051;DHT22;1535;51.098;6.414;2023-04-03T03:48:28;0.90;99.90
3051;DHT22;1535;51.098;6.414;2023-04-03T03:50:55;0.90;99.90
3051;DHT22;1535;51.098;6.414;2023-04-03T03:53:22;0.80;99.90
3051;DHT22;1535;51.098;6.414;2023-04-03T03:55:50;0.90;99.90
3051;DHT22;1535;51.098;6.414;2023-04-03T03:58:17;0.90;99.90
3051;DHT22;1535;51.098;6.414;2023-04-03T04:00:45;0.90;99.90
3051;DHT22;1535;51.098;6.414;2023-04-03T04:03:11;0.90;99.90
3051;DHT22;1535;51.098;6.414;2023-04-03T04:05:39;0.80;99.90
3051;DHT22;1535;51.098;6.414;2023-04-03T04:08:06;0.80;99.90
3051;DHT22;1535;51.098;6.414;2023-04-03T04:10:33;0.80;99.90
3051;DHT22;1535;51.098;6.414;2023-04-03T04:13:00;0.80;99.90
3051;DHT22;1535;51.098;6.414;2023-04-03T04:15:27;0.80;99.90
3051;DHT22;1535;51.098;6.414;2023-04-03T04:17:55;0.70;99.90
3051;DHT22;1535;51.098;6.414;2023-04-03T04:20:22;0.80;99.90
3051;DHT22;1535;51.098;6.414;2023-04-03T04:22:51;0.70;99.90
3051;DHT22;1535;51.098;6.414;2023-04-03T04:25:18;0.70;99.90
3051;DHT22;1535;51.098;6.414;2023-04-03T04:27:45;0.60;99.90
3051;DHT22;1535;51.098;6.414;2023-04-03T04:30:12;0.50;99.90
3051;DHT22;1535;51.098;6.414;2023-04-03T04:32:39;0.50;99.90
3051;DHT22;1535;51.098;6.414;2023-04-03T04:35:07;0.50;99.90
3051;DHT22;1535;51.098;6.414;2023-04-03T04:37:33;0.50;99.90
3051;DHT22;1535;51.098;6.414;2023-04-03T04:40:02;0.40;99.90
3051;DHT22;1535;51.098;6.414;2023-04-03T04:42:29;0.30;99.90
3051;DHT22;1535;51.098;6.414;2023-04-03T04:44:56;0.30;99.90
3051;DHT22;1535;51.098;6.414;2023-04-03T04:47:23;0.20;99.90
3051;DHT22;1535;51.098;6.414;2023-04-03T04:49:49;0.20;99.90
3051;DHT22;1535;51.098;6.414;2023-04-03T04:52:16;0.10;99.90
3051;DHT22;1535;51.098;6.414;2023-04-03T04:54:44;0.00;99.90
3051;DHT22;1535;51.098;6.414;2023-04-03T04:57:13;0.00;99.90
3051;DHT22;1535;51.098;6.414;2023-04-03T04:59:41;-0.10;99.90
3051;DHT22;1535;51.098;6.414;2023-04-03T05:02:08;-0.20;99.90
3051;DHT22;1535;51.098;6.414;2023-04-03T05:04:35;-0.10;99.90
3051;DHT22;1535;51.098;6.414;2023-04-03T05:07:01;0.00;99.90
3051;DHT22;1535;51.098;6.414;2023-04-03T05:09:28;-0.10;99.90
3051;DHT22;1535;51.098;6.414;2023-04-03T05:11:55;0.00;99.90
3051;DHT22;1535;51.098;6.414;2023-04-03T05:14:24;0.00;99.90
3051;DHT22;1535;51.098;6.414;2023-04-03T05:16:50;0.00;99.90
3051;DHT22;1535;51.098;6.414;2023-04-03T05:19:20;0.10;99.90
3051;DHT22;1535;51.098;6.414;2023-04-03T05:21:47;0.00;99.90
3051;DHT22;1535;51.098;6.414;2023-04-03T05:24:16;0.00;99.90
3051;DHT22;1535;51.098;6.414;2023-04-03T05:26:44;0.10;99.90
3051;DHT22;1535;51.098;6.414;2023-04-03T05:29:11;0.20;99.90
3051;DHT22;1535;51.098;6.414;2023-04-03T05:31:39;0.20;99.90
3051;DHT22;1535;51.098;6.414;2023-04-03T05:34:06;0.30;99.90
3051;DHT22;1535;51.098;6.414;2023-04-03T05:36:33;0.30;99.90
3051;DHT22;1535;51.098;6.414;2023-04-03T05:38:59;0.30;99.90
3051;DHT22;1535;51.098;6.414;2023-04-03T05:41:26;0.30;99.90
3051;DHT22;1535;51.098;6.414;2023-04-03T05:43:53;0.40;99.90
3051;DHT22;1535;51.098;6.414;2023-04-03T05:46:20;0.50;99.90
3051;DHT22;1535;51.098;6.414;2023-04-03T05:48:48;0.50;99.90
3051;DHT22;1535;51.098;6.414;2023-04-03T05:51:18;0.50;99.90
3051;DHT22;1535;51.098;6.414;2023-04-03T05:53:47;0.60;99.90
3051;DHT22;1535;51.098;6.414;2023-04-03T05:56:14;0.60;99.90
3051;DHT22;1535;51.098;6.414;2023-04-03T05:58:41;0.70;99.90
3051;DHT22;1535;51.098;6.414;2023-04-03T06:01:08;0.70;99.90
3051;DHT22;1535;51.098;6.414;2023-04-03T06:03:35;0.70;99.90
3051;DHT22;1535;51.098;6.414;2023-04-03T06:06:05;0.80;99.90
3051;DHT22;1535;51.098;6.414;2023-04-03T06:08:33;0.80;99.90
3051;DHT22;1535;51.098;6.414;2023-04-03T06:11:00;0.90;99.90
3051;DHT22;1535;51.098;6.414;2023-04-03T06:13:28;0.90;99.90
3051;DHT22;1535;51.098;6.414;2023-04-03T06:15:55;1.00;99.90
3051;DHT22;1535;51.098;6.414;2023-04-03T06:18:22;1.00;99.90
3051;DHT22;1535;51.098;6.414;2023-04-03T06:20:49;1.10;99.90
3051;DHT22;1535;51.098;6.414;2023-04-03T06:23:18;1.10;99.90
3051;DHT22;1535;51.098;6.414;2023-04-03T06:25:46;1.20;99.90
3051;DHT22;1535;51.098;6.414;2023-04-03T06:28:13;1.30;99.90
3051;DHT22;1535;51.098;6.414;2023-04-03T06:30:40;1.40;99.90
3051;DHT22;1535;51.098;6.414;2023-04-03T06:33:07;1.40;99.90
3051;DHT22;1535;51.098;6.414;2023-04-03T06:35:34;1.50;99.90
3051;DHT22;1535;51.098;6.414;2023-04-03T06:38:01;1.60;99.90
3051;DHT22;1535;51.098;6.414;2023-04-03T06:40:34;1.60;99.90
3051;DHT22;1535;51.098;6.414;2023-04-03T06:43:02;1.70;99.90
3051;DHT22;1535;51.098;6.414;2023-04-03T06:45:29;1.80;99.90
3051;DHT22;1535;51.098;6.414;2023-04-03T06:47:56;1.80;99.90
3051;DHT22;1535;51.098;6.414;2023-04-03T06:50:23;1.90;99.90
3051;DHT22;1535;51.098;6.414;2023-04-03T06:52:50;2.00;99.90
3051;DHT22;1535;51.098;6.414;2023-04-03T06:55:17;2.00;99.90
3051;DHT22;1535;51.098;6.414;2023-04-03T06:57:45;2.00;99.90
3051;DHT22;1535;51.098;6.414;2023-04-03T07:00:13;2.10;99.90
3051;DHT22;1535;51.098;6.414;2023-04-03T07:02:42;2.10;99.90
3051;DHT22;1535;51.098;6.414;2023-04-03T07:05:09;2.20;99.90
3051;DHT22;1535;51.098;6.414;2023-04-03T07:07:35;2.20;99.90
3051;DHT22;1535;51.098;6.414;2023-04-03T07:10:04;2.20;99.90
3051;DHT22;1535;51.098;6.414;2023-04-03T07:12:31;2.30;99.90
3051;DHT22;1535;51.098;6.414;2023-04-03T07:14:59;2.40;99.90
3051;DHT22;1535;51.098;6.414;2023-04-03T07:17:26;2.50;99.90
3051;DHT22;1535;51.098;6.414;2023-04-03T07:19:53;2.60;99.90
3051;DHT22;1535;51.098;6.414;2023-04-03T07:22:20;2.60;99.90
3051;DHT22;1535;51.098;6.414;2023-04-03T07:24:46;2.60;99.90
3051;DHT22;1535;51.098;6.414;2023-04-03T07:27:13;2.70;99.90
3051;DHT22;1535;51.098;6.414;2023-04-03T07:29:41;2.70;99.90
3051;DHT22;1535;51.098;6.414;2023-04-03T07:32:10;2.80;99.90
3051;DHT22;1535;51.098;6.414;2023-04-03T07:34:37;2.90;99.90
3051;DHT22;1535;51.098;6.414;2023-04-03T07:37:04;3.20;99.90
3051;DHT22;1535;51.098;6.414;2023-04-03T07:39:32;3.30;99.90
3051;DHT22;1535;51.098;6.414;2023-04-03T07:41:58;3.40;99.90
3051;DHT22;1535;51.098;6.414;2023-04-03T07:44:26;3.50;99.90
3051;DHT22;1535;51.098;6.414;2023-04-03T07:46:52;3.60;99.90
3051;DHT22;1535;51.098;6.414;2023-04-03T07:49:22;3.70;99.90
3051;DHT22;1535;51.098;6.414;2023-04-03T07:51:50;3.70;99.90
3051;DHT22;1535;51.098;6.414;2023-04-03T07:54:17;3.80;99.90
3051;DHT22;1535;51.098;6.414;2023-04-03T07:56:43;3.80;99.90
3051;DHT22;1535;51.098;6.414;2023-04-03T07:59:10;3.90;99.90
3051;DHT22;1535;51.098;6.414;2023-04-03T08:01:37;3.90;99.90
3051;DHT22;1535;51.098;6.414;2023-04-03T08:04:04;4.10;99.90
3051;DHT22;1535;51.098;6.414;2023-04-03T08:06:33;4.10;99.90
3051;DHT22;1535;51.098;6.414;2023-04-03T08:09:02;4.20;99.90
3051;DHT22;1535;51.098;6.414;2023-04-03T08:11:29;4.40;99.90
3051;DHT22;1535;51.098;6.414;2023-04-03T08:13:56;4.40;99.90
3051;DHT22;1535;51.098;6.414;2023-04-03T08:16:24;4.40;99.90
3051;DHT22;1535;51.098;6.414;2023-04-03T08:18:52;4.50;99.90
3051;DHT22;1535;51.098;6.414;2023-04-03T08:21:20;4.60;99.90
3051;DHT22;1535;51.098;6.414;2023-04-03T08:23:50;4.80;99.90
3051;DHT22;1535;51.098;6.414;2023-04-03T08:26:19;4.80;99.90
3051;DHT22;1535;51.098;6.414;2023-04-03T08:28:47;5.10;99.90
3051;DHT22;1535;51.098;6.414;2023-04-03T08:31:16;5.30;99.90
3051;DHT22;1535;51.098;6.414;2023-04-03T08:33:44;5.20;99.90
3051;DHT22;1535;51.098;6.414;2023-04-03T08:36:21;5.50;99.90
3051;DHT22;1535;51.098;6.414;2023-04-03T08:38:51;5.60;99.90
3051;DHT22;1535;51.098;6.414;2023-04-03T08:41:29;5.50;99.90
3051;DHT22;1535;51.098;6.414;2023-04-03T08:44:02;5.50;99.90
3051;DHT22;1535;51.098;6.414;2023-04-03T08:46:40;5.70;99.90
3051;DHT22;1535;51.098;6.414;2023-04-03T08:49:14;5.60;99.90
3051;DHT22;1535;51.098;6.414;2023-04-03T08:51:46;5.90;99.90
3051;DHT22;1535;51.098;6.414;2023-04-03T08:54:24;6.00;99.90
3051;DHT22;1535;51.098;6.414;2023-04-03T08:56:52;6.20;99.90
3051;DHT22;1535;51.098;6.414;2023-04-03T08:59:24;6.40;99.90
3051;DHT22;1535;51.098;6.414;2023-04-03T09:01:54;6.60;99.90
3051;DHT22;1535;51.098;6.414;2023-04-03T09:04:21;6.40;99.90
3051;DHT22;1535;51.098;6.414;2023-04-03T09:06:50;6.60;99.90
3051;DHT22;1535;51.098;6.414;2023-04-03T09:09:30;6.50;99.90
3051;DHT22;1535;51.098;6.414;2023-04-03T09:12:06;6.80;99.90
3051;DHT22;1535;51.098;6.414;2023-04-03T09:14:40;6.90;99.90
3051;DHT22;1535;51.098;6.414;2023-04-03T09:17:14;7.00;99.90
3051;DHT22;1535;51.098;6.414;2023-04-03T09:19:47;7.20;99.90
3051;DHT22;1535;51.098;6.414;2023-04-03T09:22:18;7.40;99.90
3051;DHT22;1535;51.098;6.414;2023-04-03T09:24:52;8.20;99.90
3051;DHT22;1535;51.098;6.414;2023-04-03T09:27:23;8.70;97.80
3051;DHT22;1535;51.098;6.414;2023-04-03T09:29:53;9.00;96.30
3051;DHT22;1535;51.098;6.414;2023-04-03T09:32:25;9.20;93.60
3051;DHT22;1535;51.098;6.414;2023-04-03T09:34:53;9.00;90.80
3051;DHT22;1535;51.098;6.414;2023-04-03T09:37:38;9.30;92.80
3051;DHT22;1535;51.098;6.414;2023-04-03T09:40:29;9.60;92.80
3051;DHT22;1535;51.098;6.414;2023-04-03T09:42:57;10.10;90.40
3051;DHT22;1535;51.098;6.414;2023-04-03T09:45:27;10.60;89.70
3051;DHT22;1535;51.098;6.414;2023-04-03T09:48:06;10.60;84.70
3051;DHT22;1535;51.098;6.414;2023-04-03T09:50:34;10.60;82.80
3051;DHT22;1535;51.098;6.414;2023-04-03T09:53:06;10.50;79.20
3051;DHT22;1535;51.098;6.414;2023-04-03T09:55:42;10.30;74.30
3051;DHT22;1535;51.098;6.414;2023-04-03T09:58:25;10.10;78.20
3051;DHT22;1535;51.098;6.414;2023-04-03T10:00:57;10.60;79.10
3051;DHT22;1535;51.098;6.414;2023-04-03T10:03:29;11.20;80.60
3051;DHT22;1535;51.098;6.414;2023-04-03T10:05:57;11.50;74.80
3051;DHT22;1535;51.098;6.414;2023-04-03T10:08:28;11.60;74.20
3051;DHT22;1535;51.098;6.414;2023-04-03T10:11:17;11.60;73.50
3051;DHT22;1535;51.098;6.414;2023-04-03T10:13:53;11.30;75.80
3051;DHT22;1535;51.098;6.414;2023-04-03T10:16:24;11.60;70.40
3051;DHT22;1535;51.098;6.414;2023-04-03T10:19:02;12.40;70.80
3051;DHT22;1535;51.098;6.414;2023-04-03T10:21:38;12.20;67.40
3051;DHT22;1535;51.098;6.414;2023-04-03T10:24:10;12.10;71.00
3051;DHT22;1535;51.098;6.414;2023-04-03T10:26:45;11.90;69.90
3051;DHT22;1535;51.098;6.414;2023-04-03T10:29:23;11.60;69.20
3051;DHT22;1535;51.098;6.414;2023-04-03T10:31:58;11.80;67.70
3051;DHT22;1535;51.098;6.414;2023-04-03T10:34:29;10.80;69.60
3051;DHT22;1535;51.098;6.414;2023-04-03T10:37:04;10.30;70.00
3051;DHT22;1535;51.098;6.414;2023-04-03T10:39:36;10.60;70.00
3051;DHT22;1535;51.098;6.414;2023-04-03T10:42:13;10.80;67.70
3051;DHT22;1535;51.098;6.414;2023-04-03T10:47:38;11.90;70.10
3051;DHT22;1535;51.098;6.414;2023-04-03T10:50:22;11.70;65.70
3051;DHT22;1535;51.098;6.414;2023-04-03T10:52:57;11.40;69.00
3051;DHT22;1535;51.098;6.414;2023-04-03T10:55:34;12.10;71.20
3051;DHT22;1535;51.098;6.414;2023-04-03T10:58:05;12.90;68.90
3051;DHT22;1535;51.098;6.414;2023-04-03T11:00:37;12.70;67.10
3051;DHT22;1535;51.098;6.414;2023-04-03T11:03:08;13.30;63.30
3051;DHT22;1535;51.098;6.414;2023-04-03T11:05:41;12.90;62.50
3051;DHT22;1535;51.098;6.414;2023-04-03T11:08:15;12.70;61.50
3051;DHT22;1535;51.098;6.414;2023-04-03T11:10:45;13.20;62.00
3051;DHT22;1535;51.098;6.414;2023-04-03T11:13:17;13.40;58.40
3051;DHT22;1535;51.098;6.414;2023-04-03T11:15:45;13.40;57.50
3051;DHT22;1535;51.098;6.414;2023-04-03T11:18:15;13.50;57.50
3051;DHT22;1535;51.098;6.414;2023-04-03T11:20:50;13.30;58.00
3051;DHT22;1535;51.098;6.414;2023-04-03T11:23:23;13.10;55.70
3051;DHT22;1535;51.098;6.414;2023-04-03T11:25:54;13.80;60.80
3051;DHT22;1535;51.098;6.414;2023-04-03T11:28:22;14.60;56.80
3051;DHT22;1535;51.098;6.414;2023-04-03T11:30:54;14.80;53.40
3051;DHT22;1535;51.098;6.414;2023-04-03T11:33:32;14.40;53.80
3051;DHT22;1535;51.098;6.414;2023-04-03T11:36:07;14.40;55.40
3051;DHT22;1535;51.098;6.414;2023-04-03T11:38:37;14.70;53.50
3051;DHT22;1535;51.098;6.414;2023-04-03T11:41:07;14.70;53.60
3051;DHT22;1535;51.098;6.414;2023-04-03T11:43:41;15.40;56.20
3051;DHT22;1535;51.098;6.414;2023-04-03T11:46:09;15.90;52.50
3051;DHT22;1535;51.098;6.414;2023-04-03T11:48:48;15.50;52.20
3051;DHT22;1535;51.098;6.414;2023-04-03T11:54:45;15.40;49.70
3051;DHT22;1535;51.098;6.414;2023-04-03T11:57:43;15.10;51.60
3051;DHT22;1535;51.098;6.414;2023-04-03T12:06:47;17.30;52.10
3051;DHT22;1535;51.098;6.414;2023-04-03T12:09:24;17.30;48.50
3051;DHT22;1535;51.098;6.414;2023-04-03T12:11:51;16.90;45.80
3051;DHT22;1535;51.098;6.414;2023-04-03T12:14:22;15.70;45.80
3051;DHT22;1535;51.098;6.414;2023-04-03T12:16:50;16.00;47.10
3051;DHT22;1535;51.098;6.414;2023-04-03T12:19:31;16.30;47.90
3051;DHT22;1535;51.098;6.414;2023-04-03T12:22:15;15.10;45.00
3051;DHT22;1535;51.098;6.414;2023-04-03T12:24:45;15.90;47.60
3051;DHT22;1535;51.098;6.414;2023-04-03T12:27:24;16.20;46.40
3051;DHT22;1535;51.098;6.414;2023-04-03T12:29:55;17.00;47.00
3051;DHT22;1535;51.098;6.414;2023-04-03T12:32:41;16.60;44.40
3051;DHT22;1535;51.098;6.414;2023-04-03T12:35:21;15.80;43.20
3051;DHT22;1535;51.098;6.414;2023-04-03T12:41:26;15.00;43.60
3051;DHT22;1535;51.098;6.414;2023-04-03T12:44:24;14.90;44.40
3051;DHT22;1535;51.098;6.414;2023-04-03T12:46:53;14.80;43.60
3051;DHT22;1535;51.098;6.414;2023-04-03T12:49:32;14.90;44.40
3051;DHT22;1535;51.098;6.414;2023-04-03T12:52:05;15.70;44.00
3051;DHT22;1535;51.098;6.414;2023-04-03T12:54:35;16.00;43.70
3051;DHT22;1535;51.098;6.414;2023-04-03T12:57:09;15.30;40.90
3051;DHT22;1535;51.098;6.414;2023-04-03T12:59:36;15.30;42.10
3051;DHT22;1535;51.098;6.414;2023-04-03T13:02:15;15.50;44.50
3051;DHT22;1535;51.098;6.414;2023-04-03T13:04:46;16.10;42.80
3051;DHT22;1535;51.098;6.414;2023-04-03T13:07:21;16.00;42.20
3051;DHT22;1535;51.098;6.414;2023-04-03T13:10:14;15.90;39.30
3051;DHT22;1535;51.098;6.414;2023-04-03T13:12:49;16.70;38.80
3051;DHT22;1535;51.098;6.414;2023-04-03T13:15:18;16.90;43.80
3051;DHT22;1535;51.098;6.414;2023-04-03T13:17:46;17.50;40.90
3051;DHT22;1535;51.098;6.414;2023-04-03T13:20:19;17.20;39.20
3051;DHT22;1535;51.098;6.414;2023-04-03T13:22:52;16.60;37.40
3051;DHT22;1535;51.098;6.414;2023-04-03T13:25:21;15.70;38.10
3051;DHT22;1535;51.098;6.414;2023-04-03T13:27:51;16.40;40.70
3051;DHT22;1535;51.098;6.414;2023-04-03T13:30:22;16.60;37.10
3051;DHT22;1535;51.098;6.414;2023-04-03T13:32:50;16.60;36.10
3051;DHT22;1535;51.098;6.414;2023-04-03T13:35:28;16.20;37.70
3051;DHT22;1535;51.098;6.414;2023-04-03T13:37:58;16.20;39.00
3051;DHT22;1535;51.098;6.414;2023-04-03T13:40:25;16.10;39.50
3051;DHT22;1535;51.098;6.414;2023-04-03T13:43:00;16.00;39.60
3051;DHT22;1535;51.098;6.414;2023-04-03T13:45:28;15.70;39.00
3051;DHT22;1535;51.098;6.414;2023-04-03T13:48:09;16.30;39.30
3051;DHT22;1535;51.098;6.414;2023-04-03T13:50:56;15.40;37.60
3051;DHT22;1535;51.098;6.414;2023-04-03T13:53:26;15.10;39.80
3051;DHT22;1535;51.098;6.414;2023-04-03T13:56:13;15.30;41.80
3051;DHT22;1535;51.098;6.414;2023-04-03T13:58:53;15.70;41.60
3051;DHT22;1535;51.098;6.414;2023-04-03T14:01:21;15.90;39.30
3051;DHT22;1535;51.098;6.414;2023-04-03T14:03:54;15.80;39.40
3051;DHT22;1535;51.098;6.414;2023-04-03T14:06:21;16.00;38.10
3051;DHT22;1535;51.098;6.414;2023-04-03T14:08:50;16.20;37.60
3051;DHT22;1535;51.098;6.414;2023-04-03T14:11:21;15.60;38.30
3051;DHT22;1535;51.098;6.414;2023-04-03T14:13:50;15.40;38.00
3051;DHT22;1535;51.098;6.414;2023-04-03T14:16:19;15.20;38.50
3051;DHT22;1535;51.098;6.414;2023-04-03T14:18:47;15.70;39.10
3051;DHT22;1535;51.098;6.414;2023-04-03T14:21:16;16.10;40.10
3051;DHT22;1535;51.098;6.414;2023-04-03T14:23:43;15.30;38.20
3051;DHT22;1535;51.098;6.414;2023-04-03T14:26:14;15.20;39.20
3051;DHT22;1535;51.098;6.414;2023-04-03T14:28:44;15.30;39.20
3051;DHT22;1535;51.098;6.414;2023-04-03T14:31:11;15.10;40.10
3051;DHT22;1535;51.098;6.414;2023-04-03T14:33:39;15.40;41.10
3051;DHT22;1535;51.098;6.414;2023-04-03T14:36:12;15.50;40.30
3051;DHT22;1535;51.098;6.414;2023-04-03T14:38:39;15.50;39.90
3051;DHT22;1535;51.098;6.414;2023-04-03T14:41:06;15.40;40.00
3051;DHT22;1535;51.098;6.414;2023-04-03T14:43:36;15.60;40.50
3051;DHT22;1535;51.098;6.414;2023-04-03T14:46:04;15.10;40.10
3051;DHT22;1535;51.098;6.414;2023-04-03T14:48:31;15.20;41.10
3051;DHT22;1535;51.098;6.414;2023-04-03T14:50:58;15.20;42.90
3051;DHT22;1535;51.098;6.414;2023-04-03T14:53:25;15.10;40.50
3051;DHT22;1535;51.098;6.414;2023-04-03T14:55:54;15.00;41.20
3051;DHT22;1535;51.098;6.414;2023-04-03T14:58:22;15.50;41.50
3051;DHT22;1535;51.098;6.414;2023-04-03T15:00:50;15.10;40.60
3051;DHT22;1535;51.098;6.414;2023-04-03T15:03:19;15.50;41.00
3051;DHT22;1535;51.098;6.414;2023-04-03T15:05:47;15.60;40.40
3051;DHT22;1535;51.098;6.414;2023-04-03T15:08:19;15.20;40.30
3051;DHT22;1535;51.098;6.414;2023-04-03T15:10:47;14.80;42.60
3051;DHT22;1535;51.098;6.414;2023-04-03T15:13:16;14.50;41.30
3051;DHT22;1535;51.098;6.414;2023-04-03T15:15:43;13.90;41.40
3051;DHT22;1535;51.098;6.414;2023-04-03T15:18:17;13.90;41.80
3051;DHT22;1535;51.098;6.414;2023-04-03T15:20:45;14.50;42.90
3051;DHT22;1535;51.098;6.414;2023-04-03T15:23:15;14.80;43.80
3051;DHT22;1535;51.098;6.414;2023-04-03T15:25:42;15.00;42.40
3051;DHT22;1535;51.098;6.414;2023-04-03T15:28:18;14.70;42.40
3051;DHT22;1535;51.098;6.414;2023-04-03T15:30:46;14.50;42.10
3051;DHT22;1535;51.098;6.414;2023-04-03T15:33:14;14.50;42.70
3051;DHT22;1535;51.098;6.414;2023-04-03T15:35:42;14.50;41.80
3051;DHT22;1535;51.098;6.414;2023-04-03T15:38:08;14.50;43.70
3051;DHT22;1535;51.098;6.414;2023-04-03T15:40:35;14.70;42.50
3051;DHT22;1535;51.098;6.414;2023-04-03T15:43:03;14.70;42.10
3051;DHT22;1535;51.098;6.414;2023-04-03T15:45:30;14.70;42.30
3051;DHT22;1535;51.098;6.414;2023-04-03T15:48:12;14.80;41.80
3051;DHT22;1535;51.098;6.414;2023-04-03T15:50:40;14.60;41.80
3051;DHT22;1535;51.098;6.414;2023-04-03T15:53:08;14.60;43.00
3051;DHT22;1535;51.098;6.414;2023-04-03T15:55:37;13.80;42.20
3051;DHT22;1535;51.098;6.414;2023-04-03T15:58:04;14.10;43.10
3051;DHT22;1535;51.098;6.414;2023-04-03T16:00:31;14.30;43.00
3051;DHT22;1535;51.098;6.414;2023-04-03T16:03:00;14.50;42.10
3051;DHT22;1535;51.098;6.414;2023-04-03T16:05:29;14.20;42.70
3051;DHT22;1535;51.098;6.414;2023-04-03T16:07:58;14.10;44.20
3051;DHT22;1535;51.098;6.414;2023-04-03T16:10:26;14.20;44.40
3051;DHT22;1535;51.098;6.414;2023-04-03T16:12:53;14.10;43.30
3051;DHT22;1535;51.098;6.414;2023-04-03T16:15:20;13.90;42.90
3051;DHT22;1535;51.098;6.414;2023-04-03T16:17:47;13.90;42.50
3051;DHT22;1535;51.098;6.414;2023-04-03T16:20:14;13.50;44.80
3051;DHT22;1535;51.098;6.414;2023-04-03T16:22:42;13.80;44.40
3051;DHT22;1535;51.098;6.414;2023-04-03T16:25:11;13.80;44.70
3051;DHT22;1535;51.098;6.414;2023-04-03T16:27:39;13.60;45.10
3051;DHT22;1535;51.098;6.414;2023-04-03T16:30:06;13.20;44.40
3051;DHT22;1535;51.098;6.414;2023-04-03T16:32:34;13.40;44.90
3051;DHT22;1535;51.098;6.414;2023-04-03T16:35:01;13.20;45.00
3051;DHT22;1535;51.098;6.414;2023-04-03T16:37:28;13.50;45.10
3051;DHT22;1535;51.098;6.414;2023-04-03T16:39:55;13.40;45.10
3051;DHT22;1535;51.098;6.414;2023-04-03T16:42:23;13.10;44.80
3051;DHT22;1535;51.098;6.414;2023-04-03T16:44:50;12.80;46.20
3051;DHT22;1535;51.098;6.414;2023-04-03T16:47:18;12.70;45.80